<?xml version="1.0" encoding="UTF-8" standalone="no" ?>
<gpx xmlns="http://www.topografix.com/GPX/1/1" xmlns:xsi="http://www.w3.org/2001/XMLSchema-instance" xsi:schemaLocation="http://www.topografix.com/GPX/1/1 http://www.topografix.com/GPX/1/1/gpx.xsd" version="1.1" creator="VisuGPX - https://www.visugpx.com">
  <metadata>
    <name>2024-11-04-46-Lavercantière - St Martin</name>
    <desc><![CDATA[Randonnée de 10 km pour environ 200m de dénivelé positif. Des sentiers en sous-bois et des paysages de champs et culture animeront le parcours. A voir l'église de St Martin, le gite du moulin blanc, le village de Rampoux]]></desc>
  </metadata>
  <trk>
    <name><![CDATA[Lavercantière - St Martin]]></name>
    <extensions>
      <line xmlns="http://www.topografix.com/GPX/gpx_style/0/2">
        <color>0000ff</color>
        <width>4</width>
          <extensions>
            <sens>1</sens>
          </extensions>
      </line>
    </extensions>
    <trkseg>
      <trkpt lat="44.63686" lon="1.3179">
        <ele>301.5</ele>
        <time>2021-09-14T17:08:01Z</time>
      </trkpt>
      <trkpt lat="44.63664" lon="1.31753">
        <ele>300.5</ele>
        <time>2021-09-14T17:09:26Z</time>
      </trkpt>
      <trkpt lat="44.6367" lon="1.31717">
        <ele>301.1</ele>
        <time>2021-09-14T17:10:01Z</time>
      </trkpt>
      <trkpt lat="44.63589" lon="1.3165">
        <ele>284</ele>
        <time>2021-09-14T17:12:06Z</time>
      </trkpt>
      <trkpt lat="44.63533" lon="1.31551">
        <ele>268.6</ele>
      </trkpt>
      <trkpt lat="44.63465" lon="1.31445">
        <ele>263</ele>
        <time>2021-09-14T17:16:21Z</time>
      </trkpt>
      <trkpt lat="44.63488" lon="1.31386">
        <ele>260</ele>
        <time>2021-09-14T17:17:25Z</time>
      </trkpt>
      <trkpt lat="44.63523" lon="1.31332">
        <ele>262</ele>
        <time>2021-09-14T17:18:34Z</time>
      </trkpt>
      <trkpt lat="44.63577" lon="1.3119">
        <ele>252.5</ele>
        <time>2021-09-14T17:21:06Z</time>
      </trkpt>
      <trkpt lat="44.63585" lon="1.31153">
        <ele>258</ele>
        <time>2021-09-14T17:21:44Z</time>
      </trkpt>
      <trkpt lat="44.63584" lon="1.31104">
        <ele>257</ele>
        <time>2021-09-14T17:22:30Z</time>
      </trkpt>
      <trkpt lat="44.63548" lon="1.31016">
        <ele>257</ele>
        <time>2021-09-14T17:24:07Z</time>
      </trkpt>
      <trkpt lat="44.6353" lon="1.30911">
        <ele>252</ele>
        <time>2021-09-14T17:25:49Z</time>
      </trkpt>
      <trkpt lat="44.63536" lon="1.30838">
        <ele>249</ele>
        <time>2021-09-14T17:26:59Z</time>
      </trkpt>
      <trkpt lat="44.63527" lon="1.30782">
        <ele>246</ele>
        <time>2021-09-14T17:27:53Z</time>
      </trkpt>
      <trkpt lat="44.63508" lon="1.3073">
        <ele>240</ele>
        <time>2021-09-14T17:28:49Z</time>
      </trkpt>
      <trkpt lat="44.63502" lon="1.30623">
        <ele>230.6</ele>
        <time>2021-09-14T17:30:29Z</time>
      </trkpt>
      <trkpt lat="44.63487" lon="1.30569">
        <ele>227.5</ele>
        <time>2021-09-14T17:31:26Z</time>
      </trkpt>
      <trkpt lat="44.63457" lon="1.30514">
        <ele>225.1</ele>
      </trkpt>
      <trkpt lat="44.63433" lon="1.30427">
        <ele>223.3</ele>
        <time>2021-09-14T17:33:24Z</time>
      </trkpt>
      <trkpt lat="44.63413" lon="1.30387">
        <ele>233</ele>
        <time>2021-09-14T17:34:43Z</time>
      </trkpt>
      <trkpt lat="44.63355" lon="1.30353">
        <ele>218.8</ele>
      </trkpt>
      <trkpt lat="44.63332" lon="1.30326">
        <ele>216.4</ele>
        <time>2021-09-14T17:36:32Z</time>
      </trkpt>
      <trkpt lat="44.63312" lon="1.3018">
        <ele>212.7</ele>
        <time>2021-09-14T17:38:56Z</time>
      </trkpt>
      <trkpt lat="44.6329" lon="1.3005">
        <ele>222</ele>
        <time>2021-09-14T17:41:17Z</time>
      </trkpt>
      <trkpt lat="44.63237" lon="1.29852">
        <ele>207</ele>
        <time>2021-09-14T17:44:37Z</time>
      </trkpt>
      <trkpt lat="44.63222" lon="1.2982">
        <ele>201</ele>
        <time>2021-09-14T17:45:12Z</time>
      </trkpt>
      <trkpt lat="44.63107" lon="1.30024">
        <ele>207</ele>
        <time>2021-09-14T17:49:21Z</time>
      </trkpt>
      <trkpt lat="44.63046" lon="1.30119">
        <ele>205.6</ele>
        <time>2021-09-14T17:51:14Z</time>
      </trkpt>
      <trkpt lat="44.62974" lon="1.30133">
        <ele>202.6</ele>
        <time>2021-09-14T17:53:03Z</time>
      </trkpt>
      <trkpt lat="44.6293" lon="1.30045">
        <ele>198.3</ele>
      </trkpt>
      <trkpt lat="44.6296" lon="1.30094">
        <ele>200.2</ele>
      </trkpt>
      <trkpt lat="44.62981" lon="1.30078">
        <ele>200.3</ele>
      </trkpt>
      <trkpt lat="44.62997" lon="1.30126">
        <ele>202.5</ele>
      </trkpt>
      <trkpt lat="44.63046" lon="1.30113">
        <ele>205.4</ele>
      </trkpt>
      <trkpt lat="44.63074" lon="1.30072">
        <ele>204.4</ele>
        <time>2021-09-14T17:55:00Z</time>
      </trkpt>
      <trkpt lat="44.63122" lon="1.29991">
        <ele>200</ele>
        <time>2021-09-14T17:57:14Z</time>
      </trkpt>
      <trkpt lat="44.63224" lon="1.29807">
        <ele>205</ele>
        <time>2021-09-14T18:00:56Z</time>
      </trkpt>
      <trkpt lat="44.63232" lon="1.29768">
        <ele>206</ele>
        <time>2021-09-14T18:01:34Z</time>
      </trkpt>
      <trkpt lat="44.63269" lon="1.29605">
        <ele>199.6</ele>
        <time>2021-09-14T18:04:17Z</time>
      </trkpt>
      <trkpt lat="44.63298" lon="1.29524">
        <ele>203</ele>
        <time>2021-09-14T18:05:44Z</time>
      </trkpt>
      <trkpt lat="44.63326" lon="1.29485">
        <ele>202</ele>
        <time>2021-09-14T18:06:37Z</time>
      </trkpt>
      <trkpt lat="44.63356" lon="1.29443">
        <ele>197.3</ele>
      </trkpt>
      <trkpt lat="44.63389" lon="1.29404">
        <ele>200</ele>
        <time>2021-09-14T18:08:31Z</time>
      </trkpt>
      <trkpt lat="44.63471" lon="1.29327">
        <ele>197.7</ele>
        <time>2021-09-14T18:10:38Z</time>
      </trkpt>
      <trkpt lat="44.63538" lon="1.29421">
        <ele>208</ele>
        <time>2021-09-14T18:12:46Z</time>
      </trkpt>
      <trkpt lat="44.63608" lon="1.29481">
        <ele>213</ele>
        <time>2021-09-14T18:14:35Z</time>
      </trkpt>
      <trkpt lat="44.63684" lon="1.29601">
        <ele>211.2</ele>
        <time>2021-09-14T18:17:02Z</time>
      </trkpt>
      <trkpt lat="44.63688" lon="1.29587">
        <ele>213.4</ele>
      </trkpt>
      <trkpt lat="44.63669" lon="1.29433">
        <ele>226.2</ele>
        <time>2021-09-14T18:20:01Z</time>
      </trkpt>
      <trkpt lat="44.63678" lon="1.29408">
        <ele>229.5</ele>
      </trkpt>
      <trkpt lat="44.63681" lon="1.29357">
        <ele>232.5</ele>
        <time>2021-09-14T18:20:56Z</time>
      </trkpt>
      <trkpt lat="44.63833" lon="1.29238">
        <ele>251</ele>
        <time>2021-09-14T18:24:45Z</time>
      </trkpt>
      <trkpt lat="44.63899" lon="1.29244">
        <ele>257</ele>
        <time>2021-09-14T18:26:13Z</time>
      </trkpt>
      <trkpt lat="44.63971" lon="1.29212">
        <ele>259</ele>
        <time>2021-09-14T18:27:54Z</time>
      </trkpt>
      <trkpt lat="44.64127" lon="1.2908">
        <ele>251</ele>
        <time>2021-09-14T18:31:57Z</time>
      </trkpt>
      <trkpt lat="44.64128" lon="1.28992">
        <ele>251</ele>
        <time>2021-09-14T18:33:21Z</time>
      </trkpt>
      <trkpt lat="44.64195" lon="1.28954">
        <ele>251.5</ele>
      </trkpt>
      <trkpt lat="44.64261" lon="1.28903">
        <ele>249.8</ele>
        <time>2021-09-14T18:36:36Z</time>
      </trkpt>
      <trkpt lat="44.64282" lon="1.2887">
        <ele>247</ele>
        <time>2021-09-14T18:37:18Z</time>
      </trkpt>
      <trkpt lat="44.64299" lon="1.28814">
        <ele>251.1</ele>
        <time>2021-09-14T18:38:16Z</time>
      </trkpt>
      <trkpt lat="44.64331" lon="1.2877">
        <ele>249.1</ele>
      </trkpt>
      <trkpt lat="44.64355" lon="1.28733">
        <ele>246.6</ele>
        <time>2021-09-14T18:40:07Z</time>
      </trkpt>
      <trkpt lat="44.6437" lon="1.28688">
        <ele>243.8</ele>
      </trkpt>
      <trkpt lat="44.64381" lon="1.28641">
        <ele>238</ele>
        <time>2021-09-14T18:41:36Z</time>
      </trkpt>
      <trkpt lat="44.64482" lon="1.2849">
        <ele>219.3</ele>
        <time>2021-09-14T18:45:09Z</time>
      </trkpt>
      <trkpt lat="44.64513" lon="1.28473">
        <ele>213.7</ele>
      </trkpt>
      <trkpt lat="44.64531" lon="1.28467">
        <ele>210.8</ele>
        <time>2021-09-14T18:46:15Z</time>
      </trkpt>
      <trkpt lat="44.64544" lon="1.28453">
        <ele>207.9</ele>
      </trkpt>
      <trkpt lat="44.6455" lon="1.28433">
        <ele>204.9</ele>
        <time>2021-09-14T18:47:00Z</time>
      </trkpt>
      <trkpt lat="44.64541" lon="1.28414">
        <ele>203.1</ele>
        <time>2021-09-14T18:47:16Z</time>
      </trkpt>
      <trkpt lat="44.64555" lon="1.28409">
        <ele>200.9</ele>
      </trkpt>
      <trkpt lat="44.64582" lon="1.28411">
        <ele>196.3</ele>
        <time>2021-09-14T18:48:09Z</time>
      </trkpt>
      <trkpt lat="44.6463" lon="1.28379">
        <ele>202</ele>
        <time>2021-09-14T18:49:16Z</time>
      </trkpt>
      <trkpt lat="44.64662" lon="1.28364">
        <ele>190.6</ele>
      </trkpt>
      <trkpt lat="44.647" lon="1.28364">
        <ele>191.7</ele>
        <time>2021-09-14T18:50:30Z</time>
      </trkpt>
      <trkpt lat="44.64756" lon="1.28384">
        <ele>204</ele>
        <time>2021-09-14T18:52:08Z</time>
      </trkpt>
      <trkpt lat="44.64858" lon="1.28364">
        <ele>208</ele>
        <time>2021-09-14T18:54:25Z</time>
      </trkpt>
      <trkpt lat="44.64874" lon="1.28386">
        <ele>199.9</ele>
      </trkpt>
      <trkpt lat="44.64884" lon="1.28426">
        <ele>200.5</ele>
      </trkpt>
      <trkpt lat="44.64905" lon="1.28471">
        <ele>204.2</ele>
        <time>2021-09-14T18:56:14Z</time>
      </trkpt>
      <trkpt lat="44.64907" lon="1.28502">
        <ele>204.9</ele>
        <time>2021-09-14T18:56:45Z</time>
      </trkpt>
      <trkpt lat="44.6492" lon="1.28577">
        <ele>213</ele>
        <time>2021-09-14T18:58:07Z</time>
      </trkpt>
      <trkpt lat="44.64903" lon="1.28662">
        <ele>216</ele>
        <time>2021-09-14T18:59:30Z</time>
      </trkpt>
      <trkpt lat="44.64903" lon="1.28732">
        <ele>212</ele>
        <time>2021-09-14T19:00:32Z</time>
      </trkpt>
      <trkpt lat="44.64922" lon="1.28812">
        <ele>213.2</ele>
      </trkpt>
      <trkpt lat="44.64949" lon="1.28887">
        <ele>214</ele>
        <time>2021-09-14T19:03:17Z</time>
      </trkpt>
      <trkpt lat="44.64959" lon="1.28903">
        <ele>214.5</ele>
      </trkpt>
      <trkpt lat="44.64997" lon="1.28916">
        <ele>215.8</ele>
        <time>2021-09-14T19:04:30Z</time>
      </trkpt>
      <trkpt lat="44.65006" lon="1.28937">
        <ele>215.8</ele>
      </trkpt>
      <trkpt lat="44.65004" lon="1.28963">
        <ele>221</ele>
        <time>2021-09-14T19:05:14Z</time>
      </trkpt>
      <trkpt lat="44.64992" lon="1.28997">
        <ele>221</ele>
        <time>2021-09-14T19:05:51Z</time>
      </trkpt>
      <trkpt lat="44.6499" lon="1.29073">
        <ele>220.8</ele>
      </trkpt>
      <trkpt lat="44.64993" lon="1.29147">
        <ele>222.4</ele>
        <time>2021-09-14T19:08:21Z</time>
      </trkpt>
      <trkpt lat="44.65034" lon="1.29245">
        <ele>223.3</ele>
      </trkpt>
      <trkpt lat="44.65067" lon="1.2931">
        <ele>225.6</ele>
      </trkpt>
      <trkpt lat="44.65095" lon="1.29381">
        <ele>226.5</ele>
        <time>2021-09-14T19:12:38Z</time>
      </trkpt>
      <trkpt lat="44.65104" lon="1.29441">
        <ele>227.7</ele>
      </trkpt>
      <trkpt lat="44.65102" lon="1.29501">
        <ele>228.5</ele>
        <time>2021-09-14T19:14:31Z</time>
      </trkpt>
      <trkpt lat="44.65071" lon="1.29578">
        <ele>239</ele>
        <time>2021-09-14T19:15:58Z</time>
      </trkpt>
      <trkpt lat="44.65077" lon="1.29638">
        <ele>234.1</ele>
        <time>2021-09-14T19:16:46Z</time>
      </trkpt>
      <trkpt lat="44.65112" lon="1.29838">
        <ele>246</ele>
        <time>2021-09-14T19:20:12Z</time>
      </trkpt>
      <trkpt lat="44.65115" lon="1.29955">
        <ele>246.9</ele>
        <time>2021-09-14T19:22:07Z</time>
      </trkpt>
      <trkpt lat="44.65188" lon="1.3002">
        <ele>254</ele>
        <time>2021-09-14T19:24:02Z</time>
      </trkpt>
      <trkpt lat="44.65218" lon="1.30056">
        <ele>257.2</ele>
      </trkpt>
      <trkpt lat="44.65251" lon="1.30107">
        <ele>258.4</ele>
        <time>2021-09-14T19:26:00Z</time>
      </trkpt>
      <trkpt lat="44.65248" lon="1.3013">
        <ele>258.5</ele>
      </trkpt>
      <trkpt lat="44.65234" lon="1.3015">
        <ele>259.9</ele>
      </trkpt>
      <trkpt lat="44.65264" lon="1.30207">
        <ele>260.2</ele>
        <time>2021-09-14T19:27:46Z</time>
      </trkpt>
      <trkpt lat="44.65254" lon="1.30318">
        <ele>262.4</ele>
        <time>2021-09-14T19:29:35Z</time>
      </trkpt>
      <trkpt lat="44.65309" lon="1.30438">
        <ele>270</ele>
        <time>2021-09-14T19:31:50Z</time>
      </trkpt>
      <trkpt lat="44.65212" lon="1.30497">
        <ele>272</ele>
        <time>2021-09-14T19:34:11Z</time>
      </trkpt>
      <trkpt lat="44.65165" lon="1.30597">
        <ele>272.2</ele>
      </trkpt>
      <trkpt lat="44.6511" lon="1.30685">
        <ele>276</ele>
        <time>2021-09-14T19:37:56Z</time>
      </trkpt>
      <trkpt lat="44.65065" lon="1.30855">
        <ele>285</ele>
        <time>2021-09-14T19:40:48Z</time>
      </trkpt>
      <trkpt lat="44.64974" lon="1.30935">
        <ele>285.1</ele>
        <time>2021-09-14T19:43:17Z</time>
      </trkpt>
      <trkpt lat="44.64929" lon="1.30983">
        <ele>291</ele>
        <time>2021-09-14T19:44:29Z</time>
      </trkpt>
      <trkpt lat="44.64872" lon="1.31062">
        <ele>289</ele>
        <time>2021-09-14T19:46:15Z</time>
      </trkpt>
      <trkpt lat="44.64759" lon="1.31143">
        <ele>286</ele>
        <time>2021-09-14T19:49:05Z</time>
      </trkpt>
      <trkpt lat="44.64691" lon="1.31206">
        <ele>285</ele>
        <time>2021-09-14T19:50:53Z</time>
      </trkpt>
      <trkpt lat="44.64609" lon="1.31311">
        <ele>286</ele>
        <time>2021-09-14T19:53:21Z</time>
      </trkpt>
      <trkpt lat="44.64529" lon="1.31223">
        <ele>275</ele>
        <time>2021-09-14T19:55:37Z</time>
      </trkpt>
      <trkpt lat="44.64293" lon="1.31309">
        <ele>273</ele>
        <time>2021-09-14T20:01:02Z</time>
      </trkpt>
      <trkpt lat="44.64256" lon="1.31308">
        <ele>275</ele>
        <time>2021-09-14T20:01:52Z</time>
      </trkpt>
      <trkpt lat="44.64152" lon="1.31263">
        <ele>280.5</ele>
        <time>2021-09-14T20:04:18Z</time>
      </trkpt>
      <trkpt lat="44.6415" lon="1.31192">
        <ele>278.3</ele>
        <time>2021-09-14T20:05:29Z</time>
      </trkpt>
      <trkpt lat="44.64164" lon="1.31133">
        <ele>275.7</ele>
      </trkpt>
      <trkpt lat="44.64167" lon="1.31076">
        <ele>274</ele>
        <time>2021-09-14T20:07:23Z</time>
      </trkpt>
      <trkpt lat="44.64153" lon="1.31012">
        <ele>270</ele>
        <time>2021-09-14T20:08:26Z</time>
      </trkpt>
      <trkpt lat="44.64129" lon="1.30938">
        <ele>264</ele>
        <time>2021-09-14T20:09:44Z</time>
      </trkpt>
      <trkpt lat="44.64064" lon="1.31018">
        <ele>263</ele>
        <time>2021-09-14T20:11:39Z</time>
      </trkpt>
      <trkpt lat="44.64011" lon="1.31106">
        <ele>265</ele>
        <time>2021-09-14T20:13:28Z</time>
      </trkpt>
      <trkpt lat="44.63994" lon="1.3117">
        <ele>269</ele>
        <time>2021-09-14T20:14:33Z</time>
      </trkpt>
      <trkpt lat="44.6399" lon="1.31259">
        <ele>275</ele>
        <time>2021-09-14T20:15:58Z</time>
      </trkpt>
      <trkpt lat="44.63937" lon="1.31427">
        <ele>281</ele>
        <time>2021-09-14T20:18:52Z</time>
      </trkpt>
      <trkpt lat="44.63899" lon="1.31471">
        <ele>284</ele>
        <time>2021-09-14T20:19:58Z</time>
      </trkpt>
      <trkpt lat="44.63882" lon="1.31505">
        <ele>286</ele>
        <time>2021-09-14T20:20:37Z</time>
      </trkpt>
      <trkpt lat="44.63876" lon="1.31623">
        <ele>288.5</ele>
      </trkpt>
      <trkpt lat="44.63866" lon="1.3168">
        <ele>295</ele>
        <time>2021-09-14T20:23:25Z</time>
      </trkpt>
      <trkpt lat="44.63838" lon="1.31731">
        <ele>297.4</ele>
      </trkpt>
      <trkpt lat="44.63801" lon="1.3177">
        <ele>297.1</ele>
        <time>2021-09-14T20:27:33Z</time>
      </trkpt>
      <trkpt lat="44.63745" lon="1.31769">
        <ele>296.9</ele>
      </trkpt>
      <trkpt lat="44.63735" lon="1.31812">
        <ele>299.3</ele>
        <time>2021-09-14T20:28:31Z</time>
      </trkpt>
      <trkpt lat="44.63716" lon="1.31835">
        <ele>300.4</ele>
        <time>2021-09-14T20:29:10Z</time>
      </trkpt>
      <trkpt lat="44.63703" lon="1.31798">
        <ele>301.9</ele>
      </trkpt>
      <trkpt lat="44.63688" lon="1.31789">
        <ele>301.6</ele>
        <time>2021-09-14T20:29:39Z</time>
      </trkpt>
    </trkseg>
  </trk>
</gpx>